createdAt,value
2023-04-04T00:00:28.163Z,100026.50
2023-04-04T00:02:56.172Z,100028.03
2023-04-04T00:05:23.955Z,100033.66
2023-04-04T00:07:51.326Z,100034.66
2023-04-04T00:10:18.915Z,100032.44
2023-04-04T00:12:46.672Z,100031.09
2023-04-04T00:15:14.168Z,100031.38
2023-04-04T00:17:41.828Z,100033.50
2023-04-04T00:20:09.623Z,100034.13
2023-04-04T00:22:36.996Z,100038.06
2023-04-04T00:25:04.852Z,100042.03
2023-04-04T00:27:32.225Z,100046.78
2023-04-04T00:29:59.791Z,100039.72
2023-04-04T00:32:27.574Z,100051.47
2023-04-04T00:34:55.103Z,100049.63
2023-04-04T00:37:22.579Z,100044.78
2023-04-04T00:39:50.464Z,100048.03
2023-04-04T00:42:17.940Z,100046.72
2023-04-04T00:44:45.467Z,100052.28
2023-04-04T00:47:13.256Z,100053.13
2023-04-04T00:49:40.637Z,100056.75
2023-04-04T00:52:08.165Z,100053.13
2023-04-04T00:54:35.946Z,100051.25
2023-04-04T00:57:04.231Z,100046.28
2023-04-04T00:59:31.677Z,100040.69
2023-04-04T01:02:00.626Z,100035.41
2023-04-04T01:04:29.348Z,100047.53
2023-04-04T01:06:56.895Z,100041.13
2023-04-04T01:09:24.687Z,100044.56
2023-04-04T01:11:52.123Z,100032.06
2023-04-04T01:14:19.831Z,100033.22
2023-04-04T01:16:48.607Z,100026.44
2023-04-04T01:19:20.508Z,100022.00
2023-04-04T01:21:48.163Z,100011.47
2023-04-04T01:24:16.665Z,100009.00
2023-04-04T01:26:44.563Z,100002.06
2023-04-04T01:29:12.384Z,99998.38
2023-04-04T01:31:41.915Z,99995.00
2023-04-04T01:34:44.910Z,99989.69
2023-04-04T01:37:15.595Z,99985.53
2023-04-04T01:39:48.137Z,99974.34
2023-04-04T01:42:15.869Z,99967.59
2023-04-04T01:44:44.065Z,99971.22
2023-04-04T01:47:14.993Z,99976.97
2023-04-04T01:49:43.225Z,99967.44
2023-04-04T01:52:10.670Z,99959.88
2023-04-04T01:54:38.287Z,99959.28
2023-04-04T01:57:06.296Z,99957.13
2023-04-04T01:59:34.282Z,99950.91
2023-04-04T02:02:01.917Z,99950.72
2023-04-04T02:04:30.375Z,99936.38
2023-04-04T02:06:58.496Z,99942.94
2023-04-04T02:09:26.313Z,99930.81
2023-04-04T02:11:54.651Z,99928.41
2023-04-04T02:14:22.061Z,99927.47
2023-04-04T02:16:50.725Z,99928.06
2023-04-04T02:19:18.779Z,99921.50
2023-04-04T02:21:46.496Z,99926.03
2023-04-04T02:24:13.941Z,99915.47
2023-04-04T02:26:42.244Z,99918.91
2023-04-04T02:29:09.960Z,99916.94
2023-04-04T02:31:37.817Z,99912.81
2023-04-04T02:34:05.576Z,99910.19
2023-04-04T02:36:34.024Z,99902.19
2023-04-04T02:39:02.449Z,99910.63
2023-04-04T02:41:30.571Z,99902.72
2023-04-04T02:43:58.469Z,99908.34
2023-04-04T02:46:26.124Z,99897.84
2023-04-04T02:48:54.529Z,99911.25
2023-04-04T02:51:22.451Z,99913.62
2023-04-04T02:53:49.850Z,99914.63
2023-04-04T02:56:17.608Z,99912.28
2023-04-04T02:58:45.653Z,99895.81
2023-04-04T03:01:13.077Z,99906.00
2023-04-04T03:03:40.577Z,99908.69
2023-04-04T03:06:08.679Z,99916.06
2023-04-04T03:08:36.386Z,99919.13
2023-04-04T03:11:04.007Z,99921.25
2023-04-04T03:13:31.650Z,99928.44
2023-04-04T03:16:03.479Z,99912.34
2023-04-04T03:18:31.524Z,99924.84
2023-04-04T03:20:59.161Z,99926.47
2023-04-04T03:23:26.665Z,99923.19
2023-04-04T03:25:55.091Z,99928.59
2023-04-04T03:28:23.224Z,99932.97
2023-04-04T03:30:50.809Z,99923.84
2023-04-04T03:33:19.382Z,99922.00
2023-04-04T03:35:47.108Z,99926.56
2023-04-04T03:38:14.597Z,99925.78
2023-04-04T03:40:42.897Z,99924.81
2023-04-04T03:43:11.258Z,99929.31
2023-04-04T03:45:39.267Z,99947.37
2023-04-04T03:48:07.477Z,99940.28
2023-04-04T03:50:36.734Z,99939.97
2023-04-04T03:53:04.125Z,99941.94
2023-04-04T03:55:31.478Z,99942.16
2023-04-04T03:57:59.259Z,99940.94
2023-04-04T04:00:27.208Z,99944.62
2023-04-04T04:02:54.914Z,99949.88
2023-04-04T04:05:22.599Z,99942.56
2023-04-04T04:07:49.956Z,99944.31
2023-04-04T04:10:18.393Z,99941.06
2023-04-04T04:12:45.808Z,99937.47
2023-04-04T04:15:13.511Z,99941.78
2023-04-04T04:17:42.042Z,99944.00
2023-04-04T04:20:10.048Z,99936.62
2023-04-04T04:22:38.208Z,99935.78
2023-04-04T04:25:06.066Z,99937.56
2023-04-04T04:27:34.069Z,99933.28
2023-04-04T04:30:01.550Z,99944.19
2023-04-04T04:32:34.364Z,99942.19
2023-04-04T04:35:02.280Z,99940.19
2023-04-04T04:37:30.937Z,99932.66
2023-04-04T04:39:58.733Z,99929.41
2023-04-04T04:42:27.461Z,99932.78
2023-04-04T04:44:56.028Z,99928.59
2023-04-04T04:47:23.824Z,99931.97
2023-04-04T04:49:51.946Z,99935.34
2023-04-04T04:52:20.547Z,99935.31
2023-04-04T04:54:48.467Z,99924.97
2023-04-04T04:57:16.112Z,99934.06
2023-04-04T04:59:44.320Z,99929.03
2023-04-04T05:02:12.196Z,99928.19
2023-04-04T05:04:44.840Z,99935.19
2023-04-04T05:07:12.773Z,99935.25
2023-04-04T05:09:40.514Z,99930.91
2023-04-04T05:12:08.049Z,99924.03
2023-04-04T05:14:36.152Z,99931.87
2023-04-04T05:17:03.527Z,99925.81
2023-04-04T05:19:31.618Z,99931.47
2023-04-04T05:21:59.707Z,99939.47
2023-04-04T05:24:27.803Z,99937.56
2023-04-04T05:26:55.632Z,99921.62
2023-04-04T05:29:23.429Z,99937.81
2023-04-04T05:31:51.175Z,99930.47
2023-04-04T05:34:18.865Z,99944.81
2023-04-04T05:36:47.952Z,99933.81
2023-04-04T05:39:15.501Z,99932.03
2023-04-04T05:41:43.619Z,99930.19
2023-04-04T05:44:12.444Z,99936.06
2023-04-04T05:46:39.961Z,99943.69
2023-04-04T05:49:07.870Z,99952.03
2023-04-04T05:51:36.711Z,99944.53
2023-04-04T05:54:07.482Z,99942.53
2023-04-04T05:56:35.035Z,99946.81
2023-04-04T05:59:03.553Z,99940.22
2023-04-04T06:01:31.414Z,99946.81
2023-04-04T06:04:00.724Z,99951.94
2023-04-04T06:06:28.257Z,99953.56
2023-04-04T06:08:55.993Z,99951.62
2023-04-04T06:11:23.655Z,99939.09
2023-04-04T06:13:52.882Z,99937.78
2023-04-04T06:16:21.406Z,99945.53
2023-04-04T06:18:49.190Z,99943.06
2023-04-04T06:21:16.606Z,99951.03
2023-04-04T06:23:44.003Z,99935.94
2023-04-04T06:26:12.634Z,99939.03
2023-04-04T06:28:50.051Z,99940.19
2023-04-04T06:31:18.222Z,99927.44
2023-04-04T06:33:46.160Z,99921.94
2023-04-04T06:36:14.257Z,99910.72
2023-04-04T06:38:41.957Z,99895.50
2023-04-04T06:41:13.290Z,99892.94
2023-04-04T06:43:40.926Z,99900.53
2023-04-04T06:46:09.313Z,99898.91
2023-04-04T06:48:37.387Z,99893.19
2023-04-04T06:51:07.977Z,99897.91
2023-04-04T06:53:35.925Z,99888.69
2023-04-04T06:56:04.734Z,99894.28
2023-04-04T06:58:32.601Z,99904.81
2023-04-04T07:01:02.238Z,99905.47
2023-04-04T07:03:29.653Z,99900.59
2023-04-04T07:05:57.215Z,99904.38
2023-04-04T07:08:24.818Z,99893.63
2023-04-04T07:10:52.225Z,99894.37
2023-04-04T07:13:19.625Z,99900.78
2023-04-04T07:15:50.923Z,99918.91
2023-04-04T07:18:18.330Z,99902.28
2023-04-04T07:20:48.561Z,99903.56
2023-04-04T07:23:16.231Z,99905.12
2023-04-04T07:25:44.415Z,99911.22
2023-04-04T07:28:13.447Z,99897.13
2023-04-04T07:30:42.707Z,99909.13
2023-04-04T07:33:10.572Z,99905.53
2023-04-04T07:35:38.391Z,99905.00
2023-04-04T07:38:10.308Z,99906.75
2023-04-04T07:40:38.297Z,99897.94
2023-04-04T07:43:06.688Z,99909.41
2023-04-04T07:45:34.380Z,99917.25
2023-04-04T07:48:02.129Z,99895.37
2023-04-04T07:50:29.604Z,99913.81
2023-04-04T07:52:58.668Z,99907.22
2023-04-04T07:55:26.212Z,99908.28
2023-04-04T07:57:53.651Z,99907.13
2023-04-04T08:00:22.154Z,99916.03
2023-04-04T08:02:53.735Z,99911.00
2023-04-04T08:05:21.319Z,99909.75
2023-04-04T08:07:48.664Z,99913.56
2023-04-04T08:10:19.385Z,99903.22
2023-04-04T08:12:46.836Z,99900.50
2023-04-04T08:15:14.173Z,99903.47
2023-04-04T08:17:43.675Z,99911.97
2023-04-04T08:20:15.815Z,99909.87
2023-04-04T08:22:43.415Z,99914.12
2023-04-04T08:25:11.412Z,99908.09
2023-04-04T08:27:44.911Z,99904.97
2023-04-04T08:30:14.350Z,99906.84
2023-04-04T08:32:42.288Z,99904.13
2023-04-04T08:35:09.794Z,99904.53
2023-04-04T08:37:37.525Z,99915.16
2023-04-04T08:40:05.341Z,99909.53
2023-04-04T08:42:33.271Z,99909.13
2023-04-04T08:45:01.959Z,99901.00
2023-04-04T08:47:30.205Z,99899.84
2023-04-04T08:49:57.600Z,99886.13
2023-04-04T08:52:25.609Z,99885.50
2023-04-04T08:54:52.999Z,99906.06
2023-04-04T08:57:20.517Z,99882.47
2023-04-04T08:59:48.447Z,99873.41
2023-04-04T09:02:21.439Z,99885.72
2023-04-04T09:04:58.608Z,99871.81
2023-04-04T09:07:33.340Z,99879.53
2023-04-04T09:10:01.342Z,99871.94
2023-04-04T09:12:29.135Z,99886.97
2023-04-04T09:14:56.760Z,99890.03
2023-04-04T09:17:24.525Z,99869.44
2023-04-04T09:19:54.218Z,99876.44
2023-04-04T09:22:21.946Z,99874.34
2023-04-04T09:24:51.736Z,99870.31
2023-04-04T09:27:19.146Z,99860.16
2023-04-04T09:29:47.433Z,99864.97
2023-04-04T09:32:16.026Z,99865.47
2023-04-04T09:34:44.040Z,99868.66
2023-04-04T09:37:14.348Z,99877.38
2023-04-04T09:39:43.549Z,99879.59
2023-04-04T09:42:11.194Z,99870.22
2023-04-04T09:44:38.777Z,99864.47
2023-04-04T09:50:00.126Z,99862.06
2023-04-04T09:52:27.983Z,99847.06
2023-04-04T09:54:57.119Z,99853.09
2023-04-04T09:57:34.905Z,99870.91
2023-04-04T10:00:08.775Z,99864.53
2023-04-04T10:02:41.302Z,99852.31
2023-04-04T10:05:10.259Z,99865.69
2023-04-04T10:07:42.336Z,99859.16
2023-04-04T10:10:10.617Z,99864.31
2023-04-04T10:12:38.517Z,99845.38
2023-04-04T10:15:06.269Z,99847.69
2023-04-04T10:17:41.028Z,99830.97
2023-04-04T10:20:09.168Z,99834.00
2023-04-04T10:22:38.057Z,99827.47
2023-04-04T10:25:06.051Z,99820.25
2023-04-04T10:27:38.608Z,99819.69
2023-04-04T10:30:07.785Z,99819.09
2023-04-04T10:33:07.503Z,99825.47
2023-04-04T10:35:35.311Z,99810.28
2023-04-04T10:38:03.557Z,99820.25
2023-04-04T10:40:33.288Z,99820.63
2023-04-04T10:43:03.012Z,99808.78
2023-04-04T10:45:32.134Z,99820.84
2023-04-04T10:48:00.436Z,99818.50
2023-04-04T10:50:28.361Z,99813.62
2023-04-04T10:52:58.468Z,99809.56
2023-04-04T10:55:26.482Z,99803.66
2023-04-04T10:57:55.315Z,99815.47
2023-04-04T11:00:26.161Z,99807.94
2023-04-04T11:03:00.487Z,99804.66
2023-04-04T11:05:31.078Z,99813.59
2023-04-04T11:08:09.093Z,99807.62
2023-04-04T11:10:44.594Z,99811.22
2023-04-04T11:13:18.230Z,99799.81
2023-04-04T11:15:59.798Z,99803.41
2023-04-04T11:18:42.331Z,99790.31
2023-04-04T11:21:11.462Z,99794.50
2023-04-04T11:23:48.086Z,99805.63
2023-04-04T11:26:20.083Z,99805.63
2023-04-04T11:28:48.562Z,99799.31
2023-04-04T11:31:19.379Z,99791.72
2023-04-04T11:34:05.923Z,99793.00
2023-04-04T11:36:36.836Z,99800.84
2023-04-04T11:39:30.343Z,99792.72
2023-04-04T11:42:10.781Z,99789.72
2023-04-04T11:44:59.833Z,99787.72
2023-04-04T11:47:27.910Z,99782.91
2023-04-04T11:49:55.900Z,99784.97
2023-04-04T11:52:26.378Z,99773.44
2023-04-04T11:54:54.235Z,99783.91
2023-04-04T11:57:21.903Z,99784.81
2023-04-04T11:59:50.568Z,99777.59
2023-04-04T12:02:27.550Z,99755.56
2023-04-04T12:04:55.693Z,99769.97
2023-04-04T12:07:24.531Z,99768.69
2023-04-04T12:09:51.945Z,99757.47
2023-04-04T12:12:19.916Z,99749.16
2023-04-04T12:14:47.749Z,99737.69
2023-04-04T12:17:16.205Z,99746.25
2023-04-04T12:19:44.392Z,99733.31
2023-04-04T12:22:11.859Z,99735.41
2023-04-04T12:24:39.323Z,99729.00
2023-04-04T12:27:07.194Z,99736.88
2023-04-04T12:29:36.449Z,99722.88
2023-04-04T12:32:04.079Z,99719.84
2023-04-04T12:34:35.293Z,99722.88
2023-04-04T12:37:02.895Z,99715.44
2023-04-04T12:39:30.358Z,99721.84
2023-04-04T12:41:59.197Z,99716.06
2023-04-04T12:44:33.249Z,99718.75
2023-04-04T12:47:03.218Z,99720.06
2023-04-04T12:49:32.417Z,99715.84
2023-04-04T12:52:04.410Z,99706.75
2023-04-04T12:54:33.355Z,99707.19
2023-04-04T12:57:04.186Z,99695.34
2023-04-04T12:59:33.422Z,99689.91
2023-04-04T13:02:06.824Z,99686.72
2023-04-04T13:04:34.584Z,99688.31
2023-04-04T13:07:02.690Z,99693.78
2023-04-04T13:09:30.242Z,99702.34
2023-04-04T13:11:59.896Z,99694.28
2023-04-04T13:14:28.462Z,99694.63
2023-04-04T13:17:04.698Z,99680.13
2023-04-04T13:19:32.453Z,99686.72
2023-04-04T13:22:01.314Z,99677.62
2023-04-04T13:24:28.839Z,99671.75
2023-04-04T13:26:57.116Z,99688.91
2023-04-04T13:29:25.404Z,99673.75
2023-04-04T13:31:53.372Z,99678.34
2023-04-04T13:34:24.237Z,99680.78
2023-04-04T13:36:51.646Z,99668.88
2023-04-04T13:39:19.102Z,99672.94
2023-04-04T13:41:46.751Z,99671.66
2023-04-04T13:44:14.517Z,99667.53
2023-04-04T13:46:42.269Z,99676.25
2023-04-04T13:49:11.210Z,99684.16
2023-04-04T13:51:38.699Z,99672.81
2023-04-04T13:54:06.528Z,99677.12
2023-04-04T13:56:34.295Z,99677.81
2023-04-04T13:59:01.713Z,99678.25
2023-04-04T14:01:29.159Z,99686.00
2023-04-04T14:03:56.901Z,99678.56
2023-04-04T14:06:24.457Z,99681.06
2023-04-04T14:08:51.797Z,99674.41
2023-04-04T14:11:19.595Z,99677.44
2023-04-04T14:13:47.067Z,99674.22
2023-04-04T14:16:14.628Z,99679.19
2023-04-04T14:18:42.304Z,99676.25
2023-04-04T14:21:09.703Z,99678.09
2023-04-04T14:23:37.420Z,99685.81
2023-04-04T14:26:05.065Z,99689.19
2023-04-04T14:28:32.782Z,99689.97
2023-04-04T14:31:00.151Z,99686.16
2023-04-04T14:33:27.737Z,99688.63
2023-04-04T14:35:55.117Z,99692.06
2023-04-04T14:38:22.488Z,99691.88
2023-04-04T14:40:50.246Z,99696.09
2023-04-04T14:43:17.575Z,99692.44
2023-04-04T14:45:44.932Z,99701.63
2023-04-04T14:48:12.553Z,99703.59
2023-04-04T14:50:40.392Z,99694.44
2023-04-04T14:53:07.873Z,99700.66
2023-04-04T14:55:35.584Z,99707.62
2023-04-04T14:58:03.294Z,99695.44
2023-04-04T15:00:31.228Z,99694.00
2023-04-04T15:02:59.456Z,99687.00
2023-04-04T15:05:27.324Z,99692.72
2023-04-04T15:07:55.756Z,99699.78
2023-04-04T15:10:23.846Z,99699.16
2023-04-04T15:12:51.300Z,99699.56
2023-04-04T15:15:18.754Z,99698.88
2023-04-04T15:17:46.759Z,99702.97
2023-04-04T15:20:14.174Z,99713.38
2023-04-04T15:22:41.621Z,99716.97
2023-04-04T15:25:09.418Z,99710.47
2023-04-04T15:27:36.823Z,99715.03
2023-04-04T15:30:04.868Z,99709.25
2023-04-04T15:32:32.555Z,99710.09
2023-04-04T15:34:59.940Z,99707.00
2023-04-04T15:37:27.308Z,99712.75
2023-04-04T15:39:54.959Z,99717.69
2023-04-04T15:42:22.322Z,99719.09
2023-04-04T15:44:49.670Z,99717.09
2023-04-04T15:47:17.413Z,99720.13
2023-04-04T15:49:44.778Z,99721.22
2023-04-04T15:52:12.388Z,99721.03
2023-04-04T15:54:39.980Z,99732.34
2023-04-04T15:57:07.341Z,99727.22
2023-04-04T15:59:34.863Z,99728.22
2023-04-04T16:02:04.730Z,99727.56
2023-04-04T16:04:33.060Z,99728.28
2023-04-04T16:07:00.579Z,99735.25
2023-04-04T16:09:28.136Z,99735.66
2023-04-04T16:11:56.163Z,99746.19
2023-04-04T16:14:24.131Z,99742.56
2023-04-04T16:16:51.590Z,99748.25
2023-04-04T16:19:19.337Z,99752.22
2023-04-04T16:21:47.002Z,99761.47
2023-04-04T16:24:15.080Z,99763.84
2023-04-04T16:26:50.081Z,99765.84
2023-04-04T16:29:17.725Z,99769.47
2023-04-04T16:31:45.425Z,99761.03
2023-04-04T16:34:12.792Z,99779.00
2023-04-04T16:36:40.156Z,99771.13
2023-04-04T16:39:07.845Z,99771.81
2023-04-04T16:41:35.293Z,99773.78
2023-04-04T16:44:02.676Z,99784.69
2023-04-04T16:46:30.374Z,99792.22
2023-04-04T16:48:57.843Z,99790.25
2023-04-04T16:51:25.970Z,99798.13
2023-04-04T16:53:53.803Z,99797.56
2023-04-04T16:56:21.174Z,99803.13
2023-04-04T16:58:48.567Z,99807.56
2023-04-04T17:01:20.499Z,99804.50
2023-04-04T17:03:48.708Z,99803.44
2023-04-04T17:06:16.386Z,99814.16
2023-04-04T17:08:46.513Z,99813.34
2023-04-04T17:11:13.867Z,99816.31
2023-04-04T17:13:41.452Z,99815.47
2023-04-04T17:16:09.241Z,99818.72
2023-04-04T17:18:36.827Z,99824.31
2023-04-04T17:21:04.450Z,99833.47
2023-04-04T17:23:31.830Z,99832.47
2023-04-04T17:25:59.193Z,99831.66
2023-04-04T17:28:26.816Z,99837.72
2023-04-04T17:30:54.176Z,99847.69
2023-04-04T17:33:23.186Z,99849.69
2023-04-04T17:35:50.841Z,99854.06
2023-04-04T17:38:19.991Z,99849.53
2023-04-04T17:40:49.049Z,99854.00
2023-04-04T17:43:16.922Z,99860.84
2023-04-04T17:45:44.904Z,99864.47
2023-04-04T17:48:12.533Z,99870.53
2023-04-04T17:50:40.635Z,99872.13
2023-04-04T17:53:08.432Z,99879.16
2023-04-04T17:55:36.659Z,99892.72
2023-04-04T17:58:04.284Z,99883.66
2023-04-04T18:00:31.658Z,99902.34
2023-04-04T18:02:59.594Z,99892.88
2023-04-04T18:05:27.264Z,99897.81
2023-04-04T18:07:54.606Z,99907.78
2023-04-04T18:10:22.217Z,99898.56
2023-04-04T18:12:49.523Z,99909.59
2023-04-04T18:15:16.849Z,99901.66
2023-04-04T18:17:44.547Z,99921.69
2023-04-04T18:20:16.391Z,99910.53
2023-04-04T18:22:49.019Z,99913.00
2023-04-04T18:25:19.696Z,99921.28
2023-04-04T18:27:47.199Z,99920.88
2023-04-04T18:30:14.827Z,99931.94
2023-04-04T18:32:42.597Z,99926.69
2023-04-04T18:35:10.241Z,99930.25
2023-04-04T18:37:37.852Z,99931.81
2023-04-04T18:40:05.755Z,99939.28
2023-04-04T18:42:33.883Z,99943.56
2023-04-04T18:45:02.029Z,99945.16
2023-04-04T18:47:30.846Z,99946.56
2023-04-04T18:49:58.220Z,99944.72
2023-04-04T18:52:25.984Z,99960.16
2023-04-04T18:54:53.346Z,99959.28
2023-04-04T18:57:20.795Z,99965.16
2023-04-04T18:59:48.521Z,99962.94
2023-04-04T19:02:15.866Z,99976.88
2023-04-04T19:04:43.216Z,99977.66
2023-04-04T19:07:11.344Z,99987.44
2023-04-04T19:09:38.729Z,99992.75
2023-04-04T19:12:06.205Z,99995.41
2023-04-04T19:14:33.886Z,99993.72
2023-04-04T19:17:01.389Z,100002.63
2023-04-04T19:19:29.146Z,99999.66
2023-04-04T19:21:56.759Z,100010.97
2023-04-04T19:24:24.119Z,100004.50
2023-04-04T19:26:51.528Z,100008.88
2023-04-04T19:29:20.948Z,100017.84
2023-04-04T19:31:48.476Z,100025.69
2023-04-04T19:34:16.054Z,100030.25
2023-04-04T19:36:43.669Z,100036.44
2023-04-04T19:39:11.074Z,100033.50
2023-04-04T19:41:39.273Z,100034.69
2023-04-04T19:44:08.850Z,100033.28
2023-04-04T19:46:36.318Z,100039.72
2023-04-04T19:49:12.701Z,100045.28
2023-04-04T19:51:41.046Z,100044.72
2023-04-04T19:54:11.460Z,100038.88
2023-04-04T19:56:38.818Z,100050.63
2023-04-04T19:59:09.837Z,100060.78
2023-04-04T20:01:44.735Z,100055.97
2023-04-04T20:04:18.062Z,100058.72
2023-04-04T20:06:45.561Z,100055.78
2023-04-04T20:09:29.499Z,100055.16
2023-04-04T20:11:57.149Z,100057.87
2023-04-04T20:14:24.493Z,100062.12
2023-04-04T20:16:52.412Z,100056.41
2023-04-04T20:19:20.943Z,100071.06
2023-04-04T20:21:48.818Z,100067.06
2023-04-04T20:24:16.957Z,100074.22
2023-04-04T20:27:00.023Z,100065.59
2023-04-04T20:29:28.094Z,100072.06
2023-04-04T20:32:02.617Z,100078.78
2023-04-04T20:34:46.262Z,100080.91
2023-04-04T20:37:25.980Z,100077.19
2023-04-04T20:40:00.294Z,100075.56
2023-04-04T20:42:27.758Z,100072.53
2023-04-04T20:44:55.983Z,100075.56
2023-04-04T20:47:42.802Z,100075.31
2023-04-04T20:50:22.472Z,100071.19
2023-04-04T20:52:56.911Z,100077.66
2023-04-04T20:55:28.476Z,100076.94
2023-04-04T20:58:09.474Z,100080.31
2023-04-04T21:00:41.318Z,100081.09
2023-04-04T21:03:10.403Z,100085.03
2023-04-04T21:05:39.267Z,100081.25
2023-04-04T21:08:24.622Z,100086.56
2023-04-04T21:10:53.436Z,100091.78
2023-04-04T21:13:27.210Z,100091.16
2023-04-04T21:16:12.186Z,100092.09
2023-04-04T21:18:40.327Z,100102.69
2023-04-04T21:21:20.128Z,100105.50
2023-04-04T21:23:53.002Z,100120.91
2023-04-04T21:26:28.518Z,100097.38
2023-04-04T21:28:56.976Z,100097.94
2023-04-04T21:31:26.093Z,100093.78
2023-04-04T21:33:54.681Z,100095.63
2023-04-04T21:36:26.251Z,100085.25
2023-04-04T21:39:01.731Z,100092.66
2023-04-04T21:41:30.623Z,100080.94
2023-04-04T21:43:59.404Z,100081.66
2023-04-04T21:46:28.099Z,100083.81
2023-04-04T21:48:55.595Z,100088.50
2023-04-04T21:51:23.291Z,100095.28
2023-04-04T21:53:50.955Z,100095.75
2023-04-04T21:56:18.306Z,100088.91
2023-04-04T21:58:46.082Z,100090.47
2023-04-04T22:01:13.468Z,100092.00
2023-04-04T22:03:41.112Z,100096.72
2023-04-04T22:06:08.630Z,100094.75
2023-04-04T22:08:36.043Z,100096.31
2023-04-04T22:11:04.078Z,100103.53
2023-04-04T22:13:32.900Z,100100.50
2023-04-04T22:16:01.031Z,100094.59
2023-04-04T22:18:33.719Z,100101.03
2023-04-04T22:21:03.381Z,100104.41
2023-04-04T22:23:37.461Z,100084.22
2023-04-04T22:26:09.256Z,100100.88
2023-04-04T22:28:38.867Z,100110.28
2023-04-04T22:31:06.342Z,100099.41
2023-04-04T22:33:34.110Z,100103.91
2023-04-04T22:36:01.919Z,100107.28
2023-04-04T22:38:29.497Z,100108.41
2023-04-04T22:40:57.699Z,100109.28
2023-04-04T22:43:28.613Z,100110.88
2023-04-04T22:45:56.277Z,100109.19
2023-04-04T22:48:23.761Z,100106.81
2023-04-04T22:50:55.687Z,100107.16
2023-04-04T22:53:26.128Z,100106.81
2023-04-04T22:55:54.190Z,100108.37
2023-04-04T22:58:21.831Z,100101.28
2023-04-04T23:00:49.303Z,100107.09
2023-04-04T23:03:17.127Z,100103.84
2023-04-04T23:05:44.469Z,100110.16
2023-04-04T23:08:11.816Z,100101.16
2023-04-04T23:10:39.713Z,100101.22
2023-04-04T23:13:07.266Z,100102.16
2023-04-04T23:15:37.642Z,100101.34
2023-04-04T23:18:05.713Z,100098.22
2023-04-04T23:20:33.195Z,100098.88
2023-04-04T23:23:00.582Z,100101.06
2023-04-04T23:25:28.472Z,100096.81
2023-04-04T23:27:55.932Z,100098.09
2023-04-04T23:30:24.096Z,100097.31
2023-04-04T23:32:51.803Z,100102.53
2023-04-04T23:35:19.168Z,100110.72
2023-04-04T23:37:46.520Z,100098.44
2023-04-04T23:40:14.162Z,100097.47
2023-04-04T23:42:41.862Z,100093.88
2023-04-04T23:45:10.071Z,100103.53
2023-04-04T23:47:37.752Z,100105.28
2023-04-04T23:50:05.593Z,100094.69
2023-04-04T23:52:33.012Z,100100.84
2023-04-04T23:55:00.857Z,100097.44
2023-04-04T23:57:28.767Z,100101.13
2023-04-04T23:59:56.117Z,100097.38
